»·PEaware :: N4359Y KSBA-KSNA

N4359Y :: KSBA-KSNA

FLIGHT INFORMATION

Flight Status: Arrived
Operator: Privately registered:
United States
More flights under this callsign
Pilot: Ricardo M. (29263)
Aircraft: PIPER PA-44 SEMINOLE
(PA44)
More flights by this aircraft type
Origin: KSBA Santa Barbara Mun
United States
Destination: KSNA John Wayne-Orange Co
United States
More flights between these airports :: More routes between these airports
Route: KWANG CMA VNY V186 BAYJY V363 POXKU V8 SLI
File this flight plan on PilotEdge
Remarks: SBAP6
Altitude:
(Current/Filed)
5,000ft
Speed:
(Current/Filed)
160kts
Departed: 12-Jan-21 11:35 AM
Arrived: 12-Jan-21 12:34 PM
Distance/Time
Traveled:
108nm/0:59
Distance/Time
To Go:
Arrived

Flight Plot

Page will automatically refresh every two minutes.


Map Options




Map Legend


Flown Route
Filed Route
Departure Airport
Arrival Airport
Navaid (VOR, NDB)
Fix

Horizontal Profiles

Position Reports

Time Latitude Longitude Heading Altitude Ground
Speed
12-Jan-21 11:29 34.425929 -119.837083 176 12ft 0kts
12-Jan-21 11:30 34.425929 -119.837083 176 12ft 0kts
12-Jan-21 11:31 34.425929 -119.837083 176 12ft 0kts
12-Jan-21 11:32 34.426709 -119.838076 63 13ft 17kts
12-Jan-21 11:33 34.427125 -119.834612 357 12ft 0kts
12-Jan-21 11:34 34.427768 -119.842498 267 88ft 96kts
12-Jan-21 11:35 34.426665 -119.878115 263 1519ft 127kts
12-Jan-21 11:36 34.421607 -119.921688 262 2531ft 131kts
12-Jan-21 11:37 34.416062 -119.967449 262 2974ft 147kts
12-Jan-21 11:38 34.393416 -119.974686 107 3694ft 126kts
12-Jan-21 11:39 34.386066 -119.934544 102 4913ft 122kts
12-Jan-21 11:40 34.376117 -119.887975 101 5034ft 150kts
12-Jan-21 11:41 34.365828 -119.838149 101 5028ft 156kts
12-Jan-21 11:42 34.355197 -119.786206 101 5036ft 160kts
12-Jan-21 11:43 34.344355 -119.733700 101 5029ft 160kts
12-Jan-21 11:44 34.333452 -119.680713 102 5024ft 164kts
12-Jan-21 11:45 34.322308 -119.626624 102 5009ft 165kts
12-Jan-21 11:46 34.311188 -119.572612 102 5005ft 165kts
12-Jan-21 11:47 34.300087 -119.518709 102 4986ft 165kts
12-Jan-21 11:48 34.289022 -119.465072 103 4991ft 164kts
12-Jan-21 11:49 34.277932 -119.411399 103 4991ft 164kts
12-Jan-21 11:50 34.266869 -119.357695 103 4991ft 164kts
12-Jan-21 11:51 34.255779 -119.303954 103 4988ft 164kts
12-Jan-21 11:52 34.244745 -119.250436 103 4985ft 164kts
12-Jan-21 11:53 34.233686 -119.196862 103 4983ft 163kts
12-Jan-21 11:54 34.222611 -119.143364 104 4977ft 163kts
12-Jan-21 11:55 34.211589 -119.090006 103 4969ft 163kts
12-Jan-21 11:56 34.202191 -119.037179 91 4959ft 161kts
12-Jan-21 11:57 34.202045 -118.982969 85 4965ft 161kts
12-Jan-21 11:58 34.204468 -118.928400 85 4979ft 163kts
12-Jan-21 12:00 34.206845 -118.874349 86 4969ft 164kts
12-Jan-21 12:01 34.209206 -118.819183 86 4978ft 164kts
12-Jan-21 12:02 34.211615 -118.764076 86 4989ft 164kts
12-Jan-21 12:03 34.214012 -118.708931 86 4991ft 164kts
12-Jan-21 12:04 34.216358 -118.653966 87 4986ft 164kts
12-Jan-21 12:05 34.218808 -118.598765 87 4980ft 164kts
12-Jan-21 12:06 34.221204 -118.543666 86 4990ft 164kts
12-Jan-21 12:07 34.223603 -118.488539 86 4976ft 164kts
12-Jan-21 12:08 34.214145 -118.435455 127 4946ft 165kts
12-Jan-21 12:09 34.191891 -118.387400 109 4958ft 164kts
12-Jan-21 12:10 34.176360 -118.335500 110 4959ft 164kts
12-Jan-21 12:11 34.160739 -118.283703 109 4963ft 164kts
12-Jan-21 12:12 34.145675 -118.233852 109 4937ft 165kts
12-Jan-21 12:13 34.130529 -118.183682 109 4958ft 164kts
12-Jan-21 12:13 34.117456 -118.140490 109 4976ft 164kts
12-Jan-21 12:15 34.099078 -118.079715 109 4978ft 165kts
12-Jan-21 12:15 34.085962 -118.036379 109 4973ft 164kts
12-Jan-21 12:17 34.067622 -117.975819 109 4965ft 164kts
12-Jan-21 12:17 34.042544 -117.942337 141 4938ft 164kts
12-Jan-21 12:18 34.016291 -117.897509 117 4909ft 165kts
12-Jan-21 12:20 33.996538 -117.844529 95 4865ft 166kts
12-Jan-21 12:20 33.993493 -117.798981 89 4118ft 170kts
12-Jan-21 12:21 33.970765 -117.776070 216 3925ft 158kts
12-Jan-21 12:22 33.944018 -117.811506 234 3984ft 158kts
12-Jan-21 12:23 33.915955 -117.847122 184 3725ft 163kts
12-Jan-21 12:24 33.903117 -117.804398 81 3040ft 154kts
12-Jan-21 12:25 33.906378 -117.755491 123 2991ft 149kts
12-Jan-21 12:26 33.867325 -117.755306 192 3012ft 148kts
12-Jan-21 12:27 33.829749 -117.770938 205 3020ft 145kts
12-Jan-21 12:28 33.796948 -117.792219 207 2541ft 119kts
12-Jan-21 12:29 33.768574 -117.809996 208 1967ft 115kts
12-Jan-21 12:30 33.740520 -117.827722 207 1378ft 116kts
12-Jan-21 12:31 33.713910 -117.844302 207 966ft 109kts
12-Jan-21 12:32 33.688198 -117.860885 209 258ft 98kts
12-Jan-21 12:33 33.674331 -117.870961 319 46ft 0kts
12-Jan-21 12:34 33.674331 -117.870961 319 46ft 0kts
12-Jan-21 12:35 33.674331 -117.870961 319 46ft 0kts
12-Jan-21 12:36 33.677308 -117.870007 295 45ft 0kts

Navigation Log

Ident Type
Flight plan parsing failed, navigation log unavailable